메인 페이지
METAR-TAF:

METAR-TAF

공항 :

아테네 국제공항

아테네, 그리스

위도: 37-56N, 경도: 023-56E, 고도: 94m

현재 날씨관측

예보는 39분 전, 00:20시(UTC)에 발표되었습니다.
남남서9kt
온도 14°C
습도 51%
기압 1009 hPa
시정 10km 이상
고도 3500ft 상공 구름 조금

METAR: LGAV 100020Z 21009KT 9999 FEW035 14/04 Q1009 NOSIG

시각: 02:59 (00:59 UTC)

예보

예보는 1 시간 59분 전, 23:00시(UTC)에 발표되었습니다.
예보 대상 시간: 10일 00시부터 10일 24시까지 (UTC)
남서10kt
시정 10km 이상
고도 2000ft 상공 구름 조금
전환 중
10일 03시부터 10일 05시까지 (UTC)
고도 2000ft 상공 구름 조금
고도 6000ft 상공 구름 보통
전환 중
10일 10시부터 10일 12시까지 (UTC)
북북서15kt
고도 2000ft 상공 구름 보통
고도 6000ft 상공 구름 많음
전환 중
10일 18시부터 10일 20시까지 (UTC)
여러 방향의 바람 5kt
고도 2000ft 상공 구름 보통
고도 6000ft 상공 구름 보통
확률 40%
10일 07시부터 10일 12시까지 (UTC)
시정: 6000m
확률 30%
10일 06시부터 10일 10시까지 (UTC)
고도 1800ft 상공 구름 조금, 적란운.

TAF: LGAV 092300Z 1000/1024 23010KT 9999 FEW020 BECMG 1003/1005 FEW020 SCT060 BECMG 1010/1012 33015KT SCT020 BKN060 BECMG 1018/1020 VRB05KT SCT020 SCT060 PROB40 1007/1012 6000 RA PROB30 1006/1010 FEW018CB

4,000개 이상의 공항 관측 자료 및 예보 (METAR 및 TAF 보고).

지도상에서 검색 가능한 기상관측소가 노란 점과 빨간 점으로 표시되어 있습니다.

기상관측소 명을 보려면 표시 위로 마우스를 이동하세요.

날씨 관측과 예보를 보려면 클릭하세요.

지도 변경 : 확대하려면 엑스 표시가 있는 녹색 버튼, 축소하려면 빼기 표시가 있는 녹색 버튼, 다음 페이지의 지도를 보려면 녹색 화살표를 클릭하세요.


METAR-TAF: